Time;durP1;ratioP1;P1;durP2;ratioP2;P2;SDS_P1;SDS_P2;PMS_P1;PMS_P2;Temp;Humidity;BMP_temperature;BMP_pressure;BME280_temperature;BME280_humidity;BME280_pressure;Samples;Min_cycle;Max_cycle;Signal;HPM_P1;HPM_P2
2023/07/28 00:01:38;;;;;;;18.92;8.02;;;17.70;99.90;;;;;;5012704;28;20375;-75
2023/07/28 00:04:09;;;;;;;15.77;8.57;;;17.70;99.90;;;;;;5013376;28;20081;-76
2023/07/28 00:06:35;;;;;;;17.42;8.57;;;17.70;99.90;;;;;;5023411;28;20061;-75
2023/07/28 00:09:00;;;;;;;15.05;8.63;;;17.70;99.90;;;;;;5014091;28;20042;-74
2023/07/28 00:11:26;;;;;;;16.27;8.73;;;17.70;99.90;;;;;;5012192;28;20049;-75
2023/07/28 00:13:52;;;;;;;17.63;9.07;;;17.70;99.90;;;;;;5017683;28;20041;-75
2023/07/28 00:16:17;;;;;;;14.93;8.10;;;17.70;99.90;;;;;;5014117;28;20052;-74
2023/07/28 00:18:43;;;;;;;14.25;8.40;;;17.70;99.90;;;;;;5013530;28;20549;-75
2023/07/28 00:21:08;;;;;;;15.88;9.10;;;17.70;99.90;;;;;;5012446;28;20131;-74
2023/07/28 00:23:34;;;;;;;15.75;8.25;;;17.70;99.90;;;;;;5013836;28;20533;-75
2023/07/28 00:26:00;;;;;;;16.45;8.15;;;17.70;99.90;;;;;;5028841;28;20117;-75
2023/07/28 00:28:25;;;;;;;14.43;8.27;;;17.70;99.90;;;;;;5013621;28;20045;-75
2023/07/28 00:30:51;;;;;;;14.15;7.63;;;17.70;99.90;;;;;;5013537;28;20048;-75
2023/07/28 00:33:17;;;;;;;14.27;8.57;;;17.70;99.90;;;;;;5013244;28;20100;-75
2023/07/28 00:35:43;;;;;;;16.70;8.82;;;17.70;99.90;;;;;;5012991;28;20080;-74
2023/07/28 00:38:09;;;;;;;13.68;8.07;;;17.70;99.90;;;;;;5012630;28;20042;-76
2023/07/28 00:40:35;;;;;;;13.80;8.02;;;17.70;99.90;;;;;;5012338;28;20052;-76
2023/07/28 00:43:02;;;;;;;16.92;7.60;;;17.70;99.90;;;;;;5012974;28;20486;-74
2023/07/28 00:45:29;;;;;;;15.63;8.23;;;17.70;99.90;;;;;;5013056;28;20041;-74
2023/07/28 00:47:57;;;;;;;14.68;8.50;;;17.60;99.90;;;;;;5013251;28;20121;-75
2023/07/28 00:50:24;;;;;;;15.25;8.20;;;17.70;99.90;;;;;;5013329;28;20099;-75
2023/07/28 00:52:50;;;;;;;13.55;8.40;;;17.60;99.90;;;;;;5011965;28;20034;-74
2023/07/28 00:55:16;;;;;;;14.70;8.75;;;17.70;99.90;;;;;;5012900;28;20059;-73
2023/07/28 00:57:42;;;;;;;13.25;7.90;;;17.70;99.90;;;;;;5013015;28;20046;-74
2023/07/28 01:00:09;;;;;;;15.15;8.52;;;17.60;99.90;;;;;;5012105;28;20115;-75
2023/07/28 01:02:35;;;;;;;17.63;10.13;;;17.70;99.90;;;;;;5012524;28;20482;-74
2023/07/28 01:05:03;;;;;;;16.52;8.93;;;17.60;99.90;;;;;;5012370;28;20434;-75
2023/07/28 01:07:53;;;;;;;17.02;9.80;;;17.60;99.90;;;;;;5006673;28;20092;-74
2023/07/28 01:10:26;;;;;;;13.77;8.63;;;17.70;99.90;;;;;;5003317;28;20103;-75
2023/07/28 01:12:52;;;;;;;14.25;8.23;;;17.70;99.90;;;;;;5013087;28;20121;-73
2023/07/28 01:15:17;;;;;;;17.23;9.18;;;17.70;99.90;;;;;;4998486;28;20135;-73
2023/07/28 01:17:43;;;;;;;16.23;9.15;;;17.70;99.90;;;;;;5011712;28;20046;-73
2023/07/28 01:20:10;;;;;;;17.33;9.25;;;17.70;99.90;;;;;;5018955;28;20352;-73
2023/07/28 01:22:49;;;;;;;17.52;9.13;;;17.60;99.90;;;;;;5017659;28;20474;-74
2023/07/28 01:25:52;;;;;;;16.05;8.88;;;17.70;99.90;;;;;;5012843;28;20030;-74
2023/07/28 01:28:19;;;;;;;14.02;8.75;;;17.60;99.90;;;;;;5009419;28;20486;-75
2023/07/28 01:30:45;;;;;;;15.82;9.27;;;17.70;99.90;;;;;;5012465;28;20065;-75
2023/07/28 01:33:11;;;;;;;14.80;8.90;;;17.70;99.90;;;;;;5011531;28;20088;-74
2023/07/28 01:35:38;;;;;;;15.77;8.10;;;17.70;99.90;;;;;;5011933;28;20061;-75
2023/07/28 01:38:04;;;;;;;19.30;9.82;;;17.60;99.90;;;;;;5012424;28;20483;-73
2023/07/28 01:40:30;;;;;;;17.17;8.88;;;17.60;99.90;;;;;;5012403;28;20045;-74
2023/07/28 01:42:56;;;;;;;17.85;9.50;;;17.60;99.90;;;;;;5012643;28;20486;-74
2023/07/28 01:45:21;;;;;;;18.90;9.35;;;17.70;99.90;;;;;;5027785;28;20034;-74
2023/07/28 01:47:47;;;;;;;17.10;9.07;;;17.60;99.90;;;;;;5012235;28;20049;-75
2023/07/28 01:50:13;;;;;;;18.80;9.88;;;17.60;99.90;;;;;;5022395;28;20048;-74
2023/07/28 01:52:38;;;;;;;24.10;10.27;;;17.60;99.90;;;;;;5017016;28;20092;-74
2023/07/28 01:55:06;;;;;;;19.27;10.23;;;17.60;99.90;;;;;;5013090;28;20037;-73
2023/07/28 01:57:34;;;;;;;21.13;9.85;;;17.60;99.90;;;;;;5016863;28;20052;-74
2023/07/28 02:00:03;;;;;;;18.88;9.73;;;17.60;99.90;;;;;;5015820;28;20129;-73
2023/07/28 02:02:29;;;;;;;19.23;9.80;;;17.60;99.90;;;;;;5016069;28;20479;-73
2023/07/28 02:04:57;;;;;;;19.15;10.15;;;17.60;99.90;;;;;;5016137;28;20041;-73
2023/07/28 02:07:23;;;;;;;19.33;10.43;;;17.70;99.90;;;;;;4994962;28;20113;-74
2023/07/28 02:09:49;;;;;;;20.23;10.27;;;17.60;99.90;;;;;;5004926;28;20384;-72
2023/07/28 02:12:14;;;;;;;19.83;11.35;;;17.60;99.90;;;;;;5016327;28;20463;-73
2023/07/28 02:14:40;;;;;;;20.88;10.13;;;17.70;99.90;;;;;;5016505;28;20073;-73
2023/07/28 02:17:06;;;;;;;17.95;10.20;;;17.60;99.90;;;;;;5015736;28;20045;-73
2023/07/28 02:19:31;;;;;;;19.85;10.23;;;17.60;99.90;;;;;;5015915;28;20113;-74
2023/07/28 02:21:57;;;;;;;19.27;10.35;;;17.70;99.90;;;;;;5015036;28;20038;-73
2023/07/28 02:24:23;;;;;;;18.60;10.70;;;17.60;99.90;;;;;;5019740;28;20421;-73
2023/07/28 02:26:48;;;;;;;20.48;10.73;;;17.60;99.90;;;;;;5016126;28;20053;-73
2023/07/28 02:29:14;;;;;;;20.52;10.73;;;17.70;99.90;;;;;;5020305;28;20084;-72
2023/07/28 02:31:40;;;;;;;19.15;11.18;;;17.60;99.90;;;;;;5014785;28;20113;-73
2023/07/28 02:34:05;;;;;;;21.90;11.10;;;17.60;99.90;;;;;;5019774;28;20367;-74
2023/07/28 02:36:31;;;;;;;19.30;10.98;;;17.60;99.90;;;;;;5014967;28;20034;-74
2023/07/28 02:38:57;;;;;;;21.33;11.25;;;17.70;99.90;;;;;;5015659;28;20054;-74
2023/07/28 02:41:22;;;;;;;21.00;10.95;;;17.70;99.90;;;;;;5014117;28;20045;-74
2023/07/28 02:43:48;;;;;;;18.92;11.77;;;17.70;99.90;;;;;;5015806;28;20120;-73
2023/07/28 02:46:14;;;;;;;16.35;9.30;;;17.60;99.90;;;;;;5031062;28;20042;-73
2023/07/28 02:48:39;;;;;;;21.70;11.77;;;17.70;99.90;;;;;;5019485;28;20048;-74
2023/07/28 02:51:05;;;;;;;21.48;10.20;;;17.70;99.90;;;;;;5014436;28;20050;-74
2023/07/28 02:53:31;;;;;;;19.75;9.75;;;17.70;99.90;;;;;;5015128;28;20125;-74
2023/07/28 02:55:56;;;;;;;20.10;10.82;;;17.60;99.90;;;;;;5014149;28;20092;-74
2023/07/28 02:58:23;;;;;;;19.08;9.85;;;17.60;99.90;;;;;;5014486;28;20034;-74
2023/07/28 03:00:51;;;;;;;18.98;10.48;;;17.70;99.90;;;;;;5014892;28;20045;-74
2023/07/28 03:03:16;;;;;;;21.45;10.93;;;17.70;99.90;;;;;;5015175;28;20446;-74
2023/07/28 03:05:42;;;;;;;17.10;10.85;;;17.70;99.90;;;;;;5013134;28;20129;-73
2023/07/28 03:08:08;;;;;;;22.00;10.80;;;17.70;99.90;;;;;;5014748;28;20402;-74
2023/07/28 03:10:33;;;;;;;18.48;10.40;;;17.70;99.90;;;;;;5022855;28;20125;-74
2023/07/28 03:12:59;;;;;;;18.33;10.90;;;17.60;99.90;;;;;;5019804;28;20073;-73
2023/07/28 03:15:25;;;;;;;18.80;10.07;;;17.70;99.90;;;;;;5014975;28;20514;-74
2023/07/28 03:17:51;;;;;;;19.23;10.25;;;17.60;99.90;;;;;;5015120;28;20356;-72
2023/07/28 03:20:16;;;;;;;16.23;9.82;;;17.60;99.90;;;;;;5013480;28;20095;-74
2023/07/28 03:22:42;;;;;;;22.20;11.05;;;17.70;99.90;;;;;;5033302;28;20038;-72
2023/07/28 03:25:09;;;;;;;17.70;10.15;;;17.60;99.90;;;;;;5010680;28;20095;-74
2023/07/28 03:27:34;;;;;;;18.65;9.65;;;17.70;99.90;;;;;;5011508;28;20378;-74
2023/07/28 03:30:01;;;;;;;18.35;9.85;;;17.60;99.90;;;;;;5012935;28;20042;-73
2023/07/28 03:32:26;;;;;;;18.25;9.80;;;17.60;99.90;;;;;;5012593;28;20445;-72
2023/07/28 03:34:52;;;;;;;20.55;11.65;;;17.70;99.90;;;;;;5014525;28;20200;-72
2023/07/28 03:37:19;;;;;;;20.52;10.50;;;17.70;99.90;;;;;;5020658;28;20045;-73
2023/07/28 03:39:44;;;;;;;17.65;10.75;;;17.70;99.90;;;;;;5013849;28;20383;-73
2023/07/28 03:42:10;;;;;;;15.02;10.23;;;17.70;99.90;;;;;;5014423;28;20034;-73
2023/07/28 03:44:41;;;;;;;17.85;9.98;;;17.70;99.90;;;;;;5030278;28;20045;-75
2023/07/28 03:47:07;;;;;;;19.50;9.25;;;17.70;99.90;;;;;;5013476;28;20056;-74
2023/07/28 03:49:33;;;;;;;19.45;10.05;;;17.70;99.90;;;;;;5013227;28;20542;-74
2023/07/28 03:51:59;;;;;;;20.58;9.88;;;17.70;99.90;;;;;;5013877;28;20117;-74
2023/07/28 03:54:25;;;;;;;19.08;10.82;;;17.60;99.90;;;;;;5020403;28;20133;-74
2023/07/28 03:56:51;;;;;;;19.67;11.45;;;17.70;99.90;;;;;;5014222;28;20127;-73
2023/07/28 03:59:16;;;;;;;17.92;10.35;;;17.60;99.90;;;;;;5014173;28;20044;-73
2023/07/28 04:01:42;;;;;;;17.90;10.15;;;17.70;99.90;;;;;;5012974;28;20049;-75
2023/07/28 04:04:08;;;;;;;18.63;10.27;;;17.70;99.90;;;;;;5014029;28;20482;-73
2023/07/28 04:06:45;;;;;;;18.42;11.15;;;17.70;99.90;;;;;;5021055;28;20096;-73
2023/07/28 04:09:13;;;;;;;19.50;11.30;;;17.70;99.90;;;;;;5012116;28;20137;-73
2023/07/28 04:11:39;;;;;;;18.70;9.85;;;17.70;99.90;;;;;;5011791;28;20081;-73
2023/07/28 04:14:05;;;;;;;18.42;11.15;;;17.70;99.90;;;;;;5012495;28;20073;-73
2023/07/28 04:16:31;;;;;;;16.70;10.13;;;17.70;99.90;;;;;;5014859;28;20073;-73
2023/07/28 04:18:57;;;;;;;16.70;9.27;;;17.80;99.90;;;;;;5033659;28;20486;-74
2023/07/28 04:21:23;;;;;;;19.40;9.70;;;17.70;99.90;;;;;;5013850;28;20061;-74
2023/07/28 04:23:49;;;;;;;20.00;10.20;;;17.70;99.90;;;;;;5013807;28;20498;-73
2023/07/28 04:26:15;;;;;;;18.27;10.35;;;17.70;99.90;;;;;;5012014;28;20042;-73
2023/07/28 04:28:41;;;;;;;15.65;9.88;;;17.70;99.90;;;;;;5028526;28;20049;-72
2023/07/28 04:31:07;;;;;;;18.52;9.95;;;17.70;99.90;;;;;;5014298;28;20037;-72
2023/07/28 04:33:32;;;;;;;18.65;9.45;;;17.80;99.90;;;;;;5013154;28;20045;-74
2023/07/28 04:35:58;;;;;;;18.15;10.10;;;17.80;99.90;;;;;;5012768;28;20382;-73
2023/07/28 04:38:24;;;;;;;16.23;10.20;;;17.80;99.90;;;;;;5006102;28;20053;-73
2023/07/28 04:40:49;;;;;;;16.15;9.82;;;17.80;99.90;;;;;;5007676;28;20077;-73
2023/07/28 04:43:15;;;;;;;18.15;10.05;;;17.80;99.90;;;;;;5015149;28;20053;-73
2023/07/28 04:45:41;;;;;;;14.98;9.80;;;17.80;99.90;;;;;;5001924;28;20044;-73
2023/07/28 04:48:06;;;;;;;18.30;10.20;;;17.80;99.90;;;;;;5013070;28;20046;-73
2023/07/28 04:50:33;;;;;;;15.75;9.60;;;17.80;99.90;;;;;;5013098;28;20046;-73
2023/07/28 04:52:59;;;;;;;18.67;10.15;;;17.90;99.90;;;;;;4995885;28;20037;-73
2023/07/28 04:55:26;;;;;;;16.63;10.13;;;17.80;99.90;;;;;;4979825;28;20153;-74
2023/07/28 04:57:52;;;;;;;17.38;10.82;;;17.90;99.90;;;;;;5013201;28;20048;-73
2023/07/28 05:00:18;;;;;;;18.42;11.15;;;17.90;99.90;;;;;;5011932;28;20053;-74
2023/07/28 05:02:44;;;;;;;16.45;9.73;;;17.90;99.90;;;;;;5013059;28;20041;-74
2023/07/28 05:05:10;;;;;;;18.23;10.57;;;17.90;99.90;;;;;;5011634;28;20041;-74
2023/07/28 05:07:35;;;;;;;19.50;10.38;;;17.90;99.90;;;;;;5011572;28;20065;-73
2023/07/28 05:10:02;;;;;;;18.83;11.10;;;17.90;99.90;;;;;;5037369;28;20046;-74
2023/07/28 05:12:28;;;;;;;16.23;10.20;;;17.90;99.90;;;;;;5040570;28;20042;-73
2023/07/28 05:14:53;;;;;;;15.45;9.27;;;17.90;99.90;;;;;;5033235;28;20041;-73
2023/07/28 05:17:19;;;;;;;15.60;9.20;;;17.90;99.90;;;;;;5013216;28;20045;-73
2023/07/28 05:19:45;;;;;;;17.52;9.60;;;17.90;99.90;;;;;;5012635;28;20471;-73
2023/07/28 05:22:10;;;;;;;16.83;10.20;;;17.90;99.90;;;;;;5020119;28;20081;-73
2023/07/28 05:24:36;;;;;;;16.33;10.48;;;17.90;99.90;;;;;;5012896;28;20045;-73
2023/07/28 05:27:02;;;;;;;16.20;9.60;;;17.90;99.90;;;;;;5012696;28;20382;-73
2023/07/28 05:29:28;;;;;;;17.80;9.48;;;17.90;99.90;;;;;;5012679;28;20041;-74
2023/07/28 05:31:53;;;;;;;15.23;9.13;;;17.90;99.90;;;;;;5012735;28;20041;-73
2023/07/28 05:34:19;;;;;;;15.85;9.93;;;18.00;99.90;;;;;;5012860;28;20474;-73
2023/07/28 05:36:45;;;;;;;19.15;10.30;;;17.90;99.90;;;;;;4995046;28;20049;-73
2023/07/28 05:39:10;;;;;;;14.20;9.50;;;17.90;99.90;;;;;;5012985;28;20042;-74
2023/07/28 05:41:39;;;;;;;18.88;10.25;;;17.90;99.90;;;;;;5011658;28;20042;-72
2023/07/28 05:44:05;;;;;;;19.67;10.70;;;17.90;99.90;;;;;;5012809;28;20050;-72
2023/07/28 05:46:31;;;;;;;18.05;10.35;;;18.00;99.90;;;;;;5011745;28;20125;-72
2023/07/28 05:48:57;;;;;;;17.90;10.73;;;18.00;99.90;;;;;;5027481;28;20041;-73
2023/07/28 05:51:23;;;;;;;16.40;9.75;;;18.00;99.90;;;;;;5011616;28;20048;-73
2023/07/28 05:53:50;;;;;;;18.38;10.43;;;18.10;99.90;;;;;;5017566;28;20117;-72
2023/07/28 05:56:15;;;;;;;17.02;9.88;;;18.10;99.90;;;;;;5012445;28;20044;-72
2023/07/28 05:58:41;;;;;;;16.85;9.48;;;18.10;99.90;;;;;;5012462;28;20054;-72
2023/07/28 06:01:07;;;;;;;16.38;9.40;;;18.20;99.90;;;;;;5012555;28;20077;-72
2023/07/28 06:03:33;;;;;;;18.60;9.20;;;18.20;99.90;;;;;;5012859;28;20077;-72
2023/07/28 06:05:58;;;;;;;16.90;9.25;;;18.20;99.90;;;;;;5011880;28;20512;-72
2023/07/28 06:08:24;;;;;;;14.60;9.93;;;18.10;99.90;;;;;;5012324;28;20050;-72
2023/07/28 06:10:50;;;;;;;15.77;9.07;;;18.20;99.90;;;;;;5012449;28;20037;-72
2023/07/28 06:13:15;;;;;;;16.65;9.95;;;18.20;99.90;;;;;;5011828;28;20068;-71
2023/07/28 06:15:42;;;;;;;16.60;10.10;;;18.20;99.90;;;;;;5011617;28;20145;-72
2023/07/28 06:18:08;;;;;;;17.13;9.55;;;18.20;99.90;;;;;;5011253;28;20049;-72
2023/07/28 06:20:34;;;;;;;16.60;9.82;;;18.30;99.90;;;;;;5012172;28;20502;-71
2023/07/28 06:23:00;;;;;;;18.35;9.95;;;18.30;99.90;;;;;;5011082;28;20041;-71
2023/07/28 06:25:26;;;;;;;17.35;9.82;;;18.30;99.90;;;;;;5012545;28;20064;-71
2023/07/28 06:27:52;;;;;;;15.52;9.57;;;18.30;99.90;;;;;;5035710;28;20038;-71
2023/07/28 06:30:17;;;;;;;18.67;9.65;;;18.50;99.90;;;;;;5011217;28;20046;-71
2023/07/28 06:32:43;;;;;;;16.15;9.90;;;18.50;99.90;;;;;;5014885;28;20057;-73
2023/07/28 06:35:09;;;;;;;14.85;9.13;;;18.50;99.90;;;;;;5014443;28;20045;-72
2023/07/28 06:37:39;;;;;;;17.95;9.35;;;18.50;99.90;;;;;;5016171;28;20486;-72
2023/07/28 06:40:07;;;;;;;16.60;9.55;;;18.50;99.90;;;;;;5016485;28;20064;-72
2023/07/28 06:42:36;;;;;;;16.10;10.00;;;18.60;99.90;;;;;;5015618;28;20069;-72
2023/07/28 06:45:03;;;;;;;14.18;9.30;;;18.60;99.90;;;;;;5014717;28;20498;-69
2023/07/28 06:47:29;;;;;;;15.23;9.38;;;18.60;99.90;;;;;;5015963;28;20053;-68
2023/07/28 06:49:55;;;;;;;13.82;9.30;;;18.70;99.90;;;;;;5039075;28;20038;-68
2023/07/28 06:52:21;;;;;;;17.13;9.95;;;18.70;99.90;;;;;;5015251;28;20038;-68
2023/07/28 06:54:48;;;;;;;14.00;9.07;;;18.80;99.90;;;;;;5015525;28;20034;-68
2023/07/28 06:57:15;;;;;;;18.42;9.07;;;18.90;99.90;;;;;;5019238;28;20082;-69
2023/07/28 06:59:41;;;;;;;16.05;8.93;;;18.90;99.90;;;;;;5015454;28;20507;-68
2023/07/28 07:02:07;;;;;;;12.93;8.20;;;19.00;99.90;;;;;;5015297;28;20474;-70
2023/07/28 07:04:32;;;;;;;11.13;7.78;;;19.00;99.90;;;;;;5014956;28;20073;-69
2023/07/28 07:06:58;;;;;;;12.77;8.15;;;19.00;99.90;;;;;;5014861;28;20053;-68
2023/07/28 07:09:24;;;;;;;12.82;8.10;;;19.00;99.90;;;;;;5014951;28;20057;-69
2023/07/28 07:11:50;;;;;;;12.80;8.15;;;19.00;99.90;;;;;;5014250;28;20038;-68
2023/07/28 07:14:16;;;;;;;12.07;7.50;;;19.00;99.90;;;;;;5015083;28;20091;-69
2023/07/28 07:16:42;;;;;;;13.30;8.45;;;19.00;99.90;;;;;;5014583;28;20491;-68
2023/07/28 07:19:08;;;;;;;12.13;7.70;;;19.00;99.90;;;;;;5006817;28;20025;-68
2023/07/28 07:21:34;;;;;;;12.50;7.55;;;19.10;99.90;;;;;;5005762;28;20053;-70
2023/07/28 07:24:00;;;;;;;11.15;6.60;;;19.00;99.90;;;;;;5012333;28;20129;-68
2023/07/28 07:26:26;;;;;;;11.57;7.20;;;19.10;99.90;;;;;;5012663;28;20038;-69
2023/07/28 07:28:52;;;;;;;10.23;7.13;;;19.20;99.90;;;;;;5013652;28;20042;-68
2023/07/28 07:31:19;;;;;;;9.27;6.80;;;19.20;99.90;;;;;;5009619;28;20077;-69
2023/07/28 07:33:44;;;;;;;14.02;8.00;;;19.20;99.90;;;;;;5012313;28;20115;-69
2023/07/28 07:36:14;;;;;;;12.73;7.90;;;19.20;99.90;;;;;;5013562;28;20466;-69
2023/07/28 07:38:45;;;;;;;11.63;7.15;;;19.30;99.90;;;;;;5013847;28;20052;-70
2023/07/28 07:41:12;;;;;;;13.30;7.85;;;19.30;99.90;;;;;;5013676;28;20076;-70
2023/07/28 07:43:38;;;;;;;10.52;7.65;;;19.40;99.90;;;;;;5013399;28;20436;-70
2023/07/28 07:46:04;;;;;;;12.52;7.57;;;19.30;99.90;;;;;;5012842;28;20077;-70
2023/07/28 07:48:30;;;;;;;10.80;7.45;;;19.30;99.90;;;;;;5013106;28;20088;-68
2023/07/28 07:50:56;;;;;;;10.82;7.03;;;19.30;99.90;;;;;;5012401;28;20044;-69
2023/07/28 07:53:22;;;;;;;11.70;6.95;;;19.20;99.90;;;;;;5028825;28;20080;-68
2023/07/28 07:55:48;;;;;;;12.65;8.88;;;19.20;99.90;;;;;;5012625;28;20046;-68
2023/07/28 07:58:14;;;;;;;12.77;8.20;;;19.30;99.90;;;;;;5012309;28;20055;-68
2023/07/28 08:00:40;;;;;;;13.95;8.13;;;19.50;99.90;;;;;;5028992;28;20041;-68
2023/07/28 08:03:06;;;;;;;9.18;6.85;;;19.70;99.90;;;;;;5012941;28;20046;-70
2023/07/28 08:05:32;;;;;;;10.02;7.43;;;19.80;99.90;;;;;;5012391;28;20042;-68
2023/07/28 08:07:58;;;;;;;12.38;7.05;;;19.90;99.90;;;;;;5013462;28;20048;-70
2023/07/28 08:10:24;;;;;;;9.95;6.32;;;19.90;99.90;;;;;;5013773;28;20077;-69
2023/07/28 08:12:49;;;;;;;9.07;6.35;;;19.90;99.90;;;;;;5013189;28;20062;-70
2023/07/28 08:15:15;;;;;;;10.65;6.85;;;19.80;99.90;;;;;;5012764;28;20401;-72
2023/07/28 08:17:41;;;;;;;9.30;6.45;;;19.80;99.90;;;;;;5013619;28;20454;-70
2023/07/28 08:20:08;;;;;;;10.93;7.53;;;19.80;99.90;;;;;;5012500;28;20041;-70
2023/07/28 08:22:34;;;;;;;10.13;7.00;;;19.70;99.90;;;;;;5012793;28;20502;-70
2023/07/28 08:24:59;;;;;;;9.27;6.20;;;19.70;99.90;;;;;;5013414;28;20042;-71
2023/07/28 08:27:25;;;;;;;8.77;6.45;;;19.90;99.90;;;;;;5012045;28;20156;-70
2023/07/28 08:29:51;;;;;;;9.95;7.05;;;19.90;99.90;;;;;;5006448;28;20045;-70
2023/07/28 08:32:17;;;;;;;9.90;6.25;;;20.00;99.90;;;;;;5005426;28;20030;-71
2023/07/28 08:34:43;;;;;;;9.55;6.13;;;20.10;99.90;;;;;;5004616;28;20394;-70
2023/07/28 08:37:08;;;;;;;9.00;6.78;;;20.20;99.90;;;;;;5002062;28;20115;-70
2023/07/28 08:39:34;;;;;;;8.55;6.72;;;20.30;99.90;;;;;;5001736;28;20131;-71
2023/07/28 08:42:01;;;;;;;8.65;6.97;;;20.50;99.90;;;;;;4998536;28;20034;-71
2023/07/28 08:44:32;;;;;;;7.78;6.65;;;20.70;99.90;;;;;;5011983;28;20450;-71
2023/07/28 08:46:57;;;;;;;7.85;6.25;;;20.80;99.90;;;;;;5013016;28;20121;-69
2023/07/28 08:49:23;;;;;;;9.48;6.75;;;20.70;99.90;;;;;;5011688;28;20121;-68
2023/07/28 08:51:50;;;;;;;9.68;6.45;;;20.60;99.90;;;;;;5012675;28;20529;-68
2023/07/28 08:54:16;;;;;;;9.48;6.18;;;20.50;99.90;;;;;;5012979;28;20100;-70
2023/07/28 08:56:43;;;;;;;8.63;6.22;;;20.40;99.90;;;;;;5012381;28;20049;-69
2023/07/28 08:59:09;;;;;;;7.60;5.60;;;20.50;99.90;;;;;;5012718;28;20124;-68
2023/07/28 09:01:43;;;;;;;7.43;5.88;;;20.60;99.90;;;;;;5012422;28;20157;-69
2023/07/28 09:04:12;;;;;;;10.52;5.50;;;20.70;99.90;;;;;;5012270;28;20050;-69
2023/07/28 09:06:38;;;;;;;7.55;5.32;;;20.80;99.90;;;;;;5011419;28;20501;-69
2023/07/28 09:09:07;;;;;;;6.22;4.72;;;20.80;99.90;;;;;;5012664;28;20049;-68
2023/07/28 09:11:33;;;;;;;5.90;5.05;;;20.90;99.90;;;;;;5011813;28;20471;-71
2023/07/28 09:14:00;;;;;;;7.25;4.95;;;21.00;99.90;;;;;;4993051;28;20045;-70
2023/07/28 09:16:29;;;;;;;7.10;4.50;;;21.00;99.90;;;;;;5004619;28;20076;-69
2023/07/28 09:19:05;;;;;;;6.28;4.78;;;20.80;99.90;;;;;;5012251;28;20053;-68
2023/07/28 09:21:32;;;;;;;6.93;4.30;;;20.70;99.90;;;;;;5013079;28;20042;-68
2023/07/28 09:24:06;;;;;;;6.53;4.20;;;20.70;99.90;;;;;;5011322;28;20045;-68
2023/07/28 09:26:42;;;;;;;5.63;3.58;;;20.90;99.90;;;;;;5010948;28;20546;-69
2023/07/28 09:29:15;;;;;;;5.00;3.15;;;21.20;99.90;;;;;;5012634;28;20394;-68
2023/07/28 09:31:45;;;;;;;6.55;3.45;;;21.50;99.90;;;;;;5012230;28;20121;-69
2023/07/28 09:34:11;;;;;;;4.03;3.15;;;21.70;99.90;;;;;;5012508;28;20179;-71
2023/07/28 09:36:40;;;;;;;5.40;3.38;;;21.70;99.90;;;;;;4989599;28;20053;-70
2023/07/28 09:39:09;;;;;;;6.75;3.60;;;21.60;99.90;;;;;;5011725;28;20065;-69
2023/07/28 09:41:38;;;;;;;4.13;3.53;;;21.40;99.90;;;;;;5010374;28;20167;-69
2023/07/28 09:44:05;;;;;;;6.07;3.80;;;21.40;99.90;;;;;;5012262;28;20053;-68
2023/07/28 09:46:36;;;;;;;4.47;3.42;;;21.40;99.90;;;;;;5012673;28;20041;-67
2023/07/28 09:49:06;;;;;;;4.93;3.58;;;21.40;99.90;;;;;;5011978;28;20038;-68
2023/07/28 09:51:35;;;;;;;4.93;3.40;;;21.40;99.90;;;;;;5012461;28;20050;-68
2023/07/28 09:54:27;;;;;;;4.55;3.20;;;21.20;99.90;;;;;;5012397;28;20056;-70
2023/07/28 09:56:58;;;;;;;4.93;3.53;;;21.10;99.90;;;;;;5011054;28;20046;-69
2023/07/28 09:59:31;;;;;;;6.32;3.20;;;21.20;99.90;;;;;;5011007;28;20513;-69
2023/07/28 10:01:59;;;;;;;6.20;4.63;;;21.40;99.90;;;;;;5012212;28;20054;-69
2023/07/28 10:04:24;;;;;;;6.40;5.03;;;21.50;99.90;;;;;;5012320;28;20046;-68
2023/07/28 10:06:56;;;;;;;7.53;4.65;;;21.40;99.90;;;;;;5011570;28;20064;-68
2023/07/28 10:09:27;;;;;;;7.78;4.32;;;21.50;99.90;;;;;;5012884;28;20042;-68
2023/07/28 10:11:54;;;;;;;7.63;4.32;;;21.50;99.90;;;;;;5015589;28;20041;-68
2023/07/28 10:14:31;;;;;;;5.95;4.25;;;21.50;99.90;;;;;;5015912;28;20104;-68
2023/07/28 10:17:04;;;;;;;5.13;3.70;;;21.70;99.90;;;;;;5014509;28;20073;-68
2023/07/28 10:19:34;;;;;;;5.75;3.58;;;21.70;99.90;;;;;;5014849;28;20054;-68
2023/07/28 10:22:07;;;;;;;7.05;3.80;;;21.70;99.90;;;;;;5016018;28;20100;-67
2023/07/28 10:24:52;;;;;;;7.72;4.18;;;21.70;99.90;;;;;;5015891;28;20042;-69
2023/07/28 10:27:36;;;;;;;4.47;3.13;;;21.90;99.90;;;;;;5014444;28;20081;-69
2023/07/28 10:30:06;;;;;;;5.15;3.47;;;21.80;99.90;;;;;;5015949;28;20382;-71
2023/07/28 10:32:43;;;;;;;7.95;3.67;;;21.70;99.90;;;;;;5014767;28;20549;-69
2023/07/28 10:35:21;;;;;;;4.88;3.65;;;21.60;99.90;;;;;;5015364;28;20042;-70
2023/07/28 10:37:47;;;;;;;8.27;4.20;;;21.50;99.90;;;;;;5014968;28;20041;-69
2023/07/28 10:40:35;;;;;;;6.15;3.70;;;21.30;99.90;;;;;;5015200;28;20041;-70
2023/07/28 10:43:04;;;;;;;7.18;4.20;;;21.20;99.90;;;;;;5013083;28;20037;-69
2023/07/28 10:45:32;;;;;;;6.40;4.13;;;21.10;99.90;;;;;;5014410;28;20379;-69
2023/07/28 10:48:03;;;;;;;6.28;4.15;;;20.90;99.90;;;;;;5015051;28;20045;-69
2023/07/28 10:50:32;;;;;;;8.00;4.10;;;20.90;99.90;;;;;;5014429;28;20049;-69
2023/07/28 10:52:58;;;;;;;5.85;4.25;;;20.80;99.90;;;;;;5014903;28;20375;-69
2023/07/28 10:55:26;;;;;;;7.57;4.30;;;20.80;99.90;;;;;;5015087;28;20203;-68
2023/07/28 10:57:53;;;;;;;6.60;4.40;;;20.80;99.90;;;;;;5003455;28;20379;-68
2023/07/28 11:00:21;;;;;;;7.20;4.38;;;20.90;99.90;;;;;;5015190;28;20046;-68
2023/07/28 11:02:52;;;;;;;6.30;4.10;;;21.20;99.90;;;;;;5014453;28;20046;-67
2023/07/28 11:05:26;;;;;;;5.55;3.85;;;21.70;99.90;;;;;;5013840;28;20398;-68
2023/07/28 11:07:55;;;;;;;7.05;4.10;;;21.90;99.90;;;;;;5014748;28;20045;-69
2023/07/28 11:10:20;;;;;;;5.75;3.78;;;22.00;99.90;;;;;;5014862;28;20471;-69
2023/07/28 11:12:50;;;;;;;5.55;3.80;;;21.90;99.90;;;;;;5014605;28;20034;-68
2023/07/28 11:15:17;;;;;;;4.55;3.40;;;21.90;99.90;;;;;;5014949;28;20121;-69
2023/07/28 11:17:50;;;;;;;7.20;4.72;;;21.70;99.90;;;;;;5014202;28;20054;-69
2023/07/28 11:20:17;;;;;;;6.93;5.60;;;21.50;99.90;;;;;;5013443;28;20088;-68
2023/07/28 11:22:44;;;;;;;9.05;6.13;;;21.30;99.90;;;;;;5014695;28;20122;-68
2023/07/28 11:25:11;;;;;;;7.18;5.28;;;21.10;99.90;;;;;;5013513;28;20116;-69
2023/07/28 11:27:38;;;;;;;7.50;5.75;;;21.10;99.90;;;;;;5013783;28;20461;-69
2023/07/28 11:30:07;;;;;;;7.13;5.47;;;21.40;99.90;;;;;;5013761;28;20049;-70
2023/07/28 11:32:35;;;;;;;6.55;4.95;;;21.50;99.90;;;;;;5013883;28;20041;-69
2023/07/28 11:35:11;;;;;;;6.07;4.80;;;21.40;99.90;;;;;;5014729;28;20069;-69
2023/07/28 11:37:39;;;;;;;7.03;5.40;;;21.30;99.90;;;;;;5014140;28;20041;-69
2023/07/28 11:40:06;;;;;;;8.70;5.47;;;21.20;99.90;;;;;;5014545;28;20382;-69
2023/07/28 11:42:35;;;;;;;7.75;5.50;;;21.20;99.90;;;;;;5014086;28;20041;-69
2023/07/28 11:45:02;;;;;;;6.82;4.90;;;21.30;99.90;;;;;;5014590;28;20045;-69
2023/07/28 11:47:27;;;;;;;6.78;5.25;;;21.50;99.90;;;;;;5013967;28;20360;-69
2023/07/28 11:49:54;;;;;;;6.43;5.00;;;21.80;99.90;;;;;;5013512;28;20426;-68
2023/07/28 11:52:21;;;;;;;7.28;5.35;;;22.10;99.90;;;;;;5014381;28;20049;-69
2023/07/28 11:54:47;;;;;;;5.82;4.43;;;22.40;99.90;;;;;;5013798;28;20094;-70
2023/07/28 11:57:12;;;;;;;7.45;4.82;;;22.50;99.90;;;;;;5012897;28;20441;-67
2023/07/28 11:59:38;;;;;;;5.95;3.97;;;22.50;99.90;;;;;;5013762;28;20418;-68
2023/07/28 12:02:05;;;;;;;5.25;4.30;;;22.40;99.90;;;;;;5007527;28;20054;-70
2023/07/28 12:04:36;;;;;;;6.18;3.97;;;22.30;99.90;;;;;;5009209;28;20046;-70
2023/07/28 12:07:06;;;;;;;8.40;5.13;;;22.20;99.90;;;;;;5010954;28;20041;-68
2023/07/28 12:09:33;;;;;;;7.78;5.50;;;22.20;99.90;;;;;;5011077;28;20104;-70
2023/07/28 12:11:59;;;;;;;6.97;5.38;;;22.20;99.90;;;;;;5011459;28;20462;-70
2023/07/28 12:14:35;;;;;;;6.50;5.10;;;22.10;99.90;;;;;;5012153;28;20050;-69
2023/07/28 12:17:03;;;;;;;7.63;5.15;;;22.10;99.90;;;;;;5012055;28;20084;-70
2023/07/28 12:19:29;;;;;;;7.90;6.00;;;22.20;99.90;;;;;;5007827;28;20089;-70
2023/07/28 12:21:55;;;;;;;8.27;6.45;;;22.30;99.90;;;;;;4992902;28;20042;-69
2023/07/28 12:24:20;;;;;;;7.10;5.45;;;22.50;99.90;;;;;;5009945;28;20046;-70
2023/07/28 12:26:47;;;;;;;7.75;5.93;;;22.80;99.90;;;;;;5012638;28;20046;-69
2023/07/28 12:29:13;;;;;;;7.47;5.15;;;22.90;99.90;;;;;;5012415;28;20116;-70
2023/07/28 12:31:39;;;;;;;6.03;5.10;;;23.10;99.90;;;;;;5012500;28;20048;-70
2023/07/28 12:34:05;;;;;;;5.65;4.70;;;23.20;99.90;;;;;;5012483;28;20042;-71
2023/07/28 12:36:31;;;;;;;7.28;5.05;;;23.40;99.90;;;;;;5009937;28;20371;-69
2023/07/28 12:38:57;;;;;;;5.63;4.63;;;23.40;99.90;;;;;;5012937;28;20060;-70